createdAt,value
2022-11-25T00:00:02.305Z,11.02
2022-11-25T00:05:04.201Z,18.65
2022-11-25T00:10:07.007Z,14.63
2022-11-25T00:15:09.070Z,15.63
2022-11-25T00:20:11.049Z,11.18
2022-11-25T00:25:13.189Z,13.35
2022-11-25T00:30:15.133Z,10.77
2022-11-25T00:35:16.858Z,12.15
2022-11-25T00:40:19.160Z,13.65
2022-11-25T00:45:21.078Z,16.10
2022-11-25T00:50:22.857Z,12.55
2022-11-25T00:55:24.578Z,20.48
2022-11-25T01:00:26.282Z,21.90
2022-11-25T01:05:28.010Z,10.15
2022-11-25T01:10:29.729Z,9.15
2022-11-25T01:15:31.503Z,12.80
2022-11-25T01:20:33.219Z,10.20
2022-11-25T01:25:39.261Z,7.97
2022-11-25T01:30:41.454Z,6.97
2022-11-25T01:35:43.203Z,4.20
2022-11-25T01:40:44.937Z,7.22
2022-11-25T01:45:47.034Z,3.25
2022-11-25T01:50:50.672Z,2.92
2022-11-25T01:56:00.364Z,1.88
2022-11-25T02:01:02.199Z,1.55
2022-11-25T02:06:23.780Z,1.38
2022-11-25T02:11:28.611Z,2.47
2022-11-25T02:16:30.489Z,2.22
2022-11-25T02:21:46.599Z,0.82
2022-11-25T02:26:48.408Z,2.72
2022-11-25T02:31:53.388Z,2.80
2022-11-25T02:36:55.260Z,2.33
2022-11-25T02:41:59.847Z,3.05
2022-11-25T02:47:01.595Z,1.88
2022-11-25T02:52:03.555Z,2.25
2022-11-25T02:57:05.355Z,4.78
2022-11-25T03:02:07.168Z,4.35
2022-11-25T03:07:08.983Z,2.97
2022-11-25T03:12:19.699Z,0.65
2022-11-25T03:17:21.436Z,4.63
2022-11-25T03:22:23.765Z,4.00
2022-11-25T03:27:27.993Z,1.17
2022-11-25T03:32:32.416Z,3.65
2022-11-25T03:37:34.280Z,0.98
2022-11-25T03:42:36.494Z,3.97
2022-11-25T03:47:38.451Z,9.38
2022-11-25T03:52:40.967Z,6.03
2022-11-25T03:57:42.773Z,7.18
2022-11-25T04:02:44.751Z,9.57
2022-11-25T04:07:46.566Z,9.43
2022-11-25T04:12:48.366Z,9.65
2022-11-25T04:17:50.127Z,7.03
2022-11-25T04:22:51.858Z,7.25
2022-11-25T04:27:53.633Z,4.10
2022-11-25T04:32:55.625Z,9.10
2022-11-25T04:37:57.361Z,10.40
2022-11-25T04:43:04.707Z,12.23
2022-11-25T04:48:08.127Z,11.35
2022-11-25T04:53:09.942Z,10.60
2022-11-25T04:58:11.900Z,8.40
2022-11-25T05:03:13.618Z,10.27
2022-11-25T05:08:15.332Z,11.80
2022-11-25T05:13:17.049Z,4.07
2022-11-25T05:18:18.768Z,11.98
2022-11-25T05:23:20.509Z,10.60
2022-11-25T05:28:22.322Z,8.77
2022-11-25T05:33:24.235Z,10.98
2022-11-25T05:38:27.087Z,9.20
2022-11-25T05:43:28.984Z,6.78
2022-11-25T05:48:30.705Z,9.55
2022-11-25T05:53:32.851Z,5.18
2022-11-25T05:58:34.701Z,9.90
2022-11-25T06:03:37.019Z,15.27
2022-11-25T06:08:39.228Z,8.60
2022-11-25T06:13:42.573Z,12.95
2022-11-25T06:18:44.815Z,13.57
2022-11-25T06:23:46.803Z,11.88
2022-11-25T06:28:50.528Z,10.23
2022-11-25T06:33:54.966Z,9.10
2022-11-25T06:38:56.706Z,11.63
2022-11-25T06:43:58.478Z,17.25
2022-11-25T06:49:00.750Z,12.20
2022-11-25T06:54:02.535Z,8.90
2022-11-25T06:59:04.405Z,10.07
2022-11-25T07:04:06.418Z,6.57
2022-11-25T07:09:08.525Z,16.48
2022-11-25T07:14:12.812Z,13.88
2022-11-25T07:19:17.084Z,16.35
2022-11-25T07:24:18.927Z,11.82
2022-11-25T07:29:51.658Z,11.45
2022-11-25T07:34:42.938Z,10.65
2022-11-25T07:39:44.710Z,14.52
2022-11-25T07:44:46.472Z,11.32
2022-11-25T07:49:48.250Z,13.30
2022-11-25T07:54:50.185Z,12.20
2022-11-25T07:59:51.968Z,14.18
2022-11-25T08:04:53.714Z,23.75
2022-11-25T08:09:55.488Z,11.50
2022-11-25T08:14:57.250Z,9.63
2022-11-25T08:19:58.993Z,14.23
2022-11-25T08:25:00.779Z,14.18
2022-11-25T08:30:02.743Z,12.05
2022-11-25T08:35:05.925Z,14.70
2022-11-25T08:40:08.827Z,14.73
2022-11-25T08:45:11.305Z,13.68
2022-11-25T08:50:14.996Z,13.27
2022-11-25T08:55:17.043Z,18.30
2022-11-25T09:00:19.219Z,13.80
2022-11-25T09:05:21.003Z,20.75
2022-11-25T09:10:22.826Z,11.65
2022-11-25T09:15:24.623Z,20.20
2022-11-25T09:20:26.994Z,10.07
2022-11-25T09:25:29.390Z,11.73
2022-11-25T09:30:32.054Z,11.75
2022-11-25T09:35:33.837Z,14.38
2022-11-25T09:40:41.817Z,15.93
2022-11-25T09:46:14.272Z,14.90
2022-11-25T09:51:35.093Z,19.50
2022-11-25T09:56:42.904Z,5.30
2022-11-25T10:01:53.596Z,14.27
2022-11-25T10:07:02.422Z,12.00
2022-11-25T10:12:29.414Z,8.43
2022-11-25T10:17:52.022Z,8.10
2022-11-25T10:23:32.304Z,9.40
2022-11-25T10:28:36.520Z,5.80
2022-11-25T10:33:45.479Z,11.68
2022-11-25T10:39:16.447Z,7.18
2022-11-25T10:49:38.371Z,4.90
2022-11-25T10:54:41.016Z,7.07
2022-11-25T10:59:53.849Z,2.33
2022-11-25T11:05:04.679Z,3.17
2022-11-25T11:15:22.459Z,4.03
2022-11-25T11:20:29.977Z,1.88
2022-11-25T11:25:34.616Z,4.28
2022-11-25T11:30:36.377Z,9.18
2022-11-25T11:36:09.484Z,6.38
2022-11-25T11:41:30.916Z,9.73
2022-11-25T11:46:57.921Z,7.45
2022-11-25T11:52:19.832Z,7.22
2022-11-25T11:57:48.552Z,5.40
2022-11-25T12:03:13.456Z,7.03
2022-11-25T12:08:34.279Z,7.82
2022-11-25T12:13:42.786Z,11.38
2022-11-25T12:19:22.866Z,11.40
2022-11-25T12:24:31.850Z,6.43
2022-11-25T12:29:45.667Z,12.02
2022-11-25T12:35:06.382Z,11.73
2022-11-25T12:40:16.468Z,2.05
2022-11-25T12:45:22.643Z,9.10
2022-11-25T12:50:31.210Z,12.52
2022-11-25T12:55:34.410Z,11.77
2022-11-25T13:01:03.365Z,8.02
2022-11-25T13:06:24.104Z,8.52
2022-11-25T13:11:57.635Z,11.88
2022-11-25T13:17:01.025Z,10.00
2022-11-25T13:22:24.771Z,15.48
2022-11-25T13:27:53.150Z,11.80
2022-11-25T13:32:55.839Z,13.45
2022-11-25T13:37:57.855Z,12.32
2022-11-25T13:43:03.133Z,10.23
2022-11-25T13:48:28.064Z,17.95
2022-11-25T13:53:35.751Z,11.15
2022-11-25T13:58:37.566Z,9.40
2022-11-25T14:03:46.453Z,14.68
2022-11-25T14:09:12.835Z,12.63
2022-11-25T14:15:02.251Z,15.07
2022-11-25T14:20:30.817Z,13.90
2022-11-25T14:26:04.092Z,11.10
2022-11-25T14:31:16.064Z,21.05
2022-11-25T14:36:33.656Z,18.23
2022-11-25T14:41:43.848Z,17.38
2022-11-25T14:46:57.937Z,12.95
2022-11-25T14:51:59.770Z,17.60
2022-11-25T14:57:01.646Z,14.88
2022-11-25T15:02:03.574Z,18.77
2022-11-25T15:07:19.783Z,13.45
2022-11-25T15:12:23.153Z,12.70
2022-11-25T15:17:33.218Z,19.00
2022-11-25T15:22:34.981Z,15.43
2022-11-25T15:27:48.814Z,12.88
2022-11-25T15:32:51.708Z,10.57
2022-11-25T15:37:56.264Z,17.85
2022-11-25T15:42:59.614Z,15.23
2022-11-25T15:48:03.122Z,13.30
2022-11-25T15:53:06.957Z,17.05
2022-11-25T15:58:21.940Z,15.45
2022-11-25T16:03:23.917Z,13.55
2022-11-25T16:08:38.088Z,16.67
2022-11-25T16:13:40.248Z,14.40
2022-11-25T16:18:42.076Z,19.50
2022-11-25T16:24:14.755Z,10.90
2022-11-25T16:29:19.821Z,19.30
2022-11-25T16:34:24.264Z,14.68
2022-11-25T16:39:26.228Z,17.25
2022-11-25T16:44:28.477Z,15.52
2022-11-25T16:49:31.303Z,13.18
2022-11-25T16:54:33.980Z,10.43
2022-11-25T16:59:39.107Z,20.35
2022-11-25T17:04:41.218Z,21.27
2022-11-25T17:09:44.354Z,13.88
2022-11-25T17:14:48.119Z,18.30
2022-11-25T17:19:50.047Z,20.35
2022-11-25T17:24:51.952Z,9.07
2022-11-25T17:29:55.840Z,25.70
2022-11-25T17:34:57.656Z,15.05
2022-11-25T17:39:59.428Z,28.35
2022-11-25T17:45:01.437Z,19.52
2022-11-25T17:50:22.811Z,28.65
2022-11-25T17:55:24.566Z,15.25
2022-11-25T18:00:26.368Z,23.02
2022-11-25T18:05:28.686Z,16.80
2022-11-25T18:10:30.520Z,24.85
2022-11-25T18:15:34.003Z,26.20
2022-11-25T18:20:35.774Z,19.15
2022-11-25T18:25:39.900Z,22.50
2022-11-25T18:30:41.733Z,31.00
2022-11-25T18:35:45.218Z,30.75
2022-11-25T18:40:51.974Z,28.85
2022-11-25T18:45:55.885Z,20.63
2022-11-25T18:50:57.851Z,26.35
2022-11-25T18:55:59.841Z,26.88
2022-11-25T19:01:10.840Z,29.45
2022-11-25T19:06:16.947Z,28.42
2022-11-25T19:11:31.917Z,33.47
2022-11-25T19:16:34.143Z,31.85
2022-11-25T19:21:35.914Z,23.80
2022-11-25T19:26:43.406Z,20.20
2022-11-25T19:31:46.155Z,24.58
2022-11-25T19:36:47.946Z,27.52
2022-11-25T19:41:49.898Z,25.40
2022-11-25T19:47:14.297Z,29.27
2022-11-25T19:52:16.815Z,19.77
2022-11-25T19:57:21.605Z,26.40
2022-11-25T20:02:26.117Z,22.30
2022-11-25T20:07:30.109Z,24.45
2022-11-25T20:12:32.040Z,20.50
2022-11-25T20:17:35.359Z,24.15
2022-11-25T20:22:41.363Z,25.27
2022-11-25T20:27:43.228Z,23.75
2022-11-25T20:32:45.429Z,24.95
2022-11-25T20:38:00.734Z,22.52
2022-11-25T20:43:02.949Z,33.20
2022-11-25T20:48:10.823Z,22.35
2022-11-25T20:53:18.646Z,22.27
2022-11-25T20:58:26.439Z,28.88
2022-11-25T21:03:28.275Z,32.70
2022-11-25T21:08:31.482Z,27.42
2022-11-25T21:13:33.308Z,25.70
2022-11-25T21:18:35.040Z,34.65
2022-11-25T21:23:37.911Z,25.08
2022-11-25T21:28:42.546Z,25.48
2022-11-25T21:33:45.884Z,27.80
2022-11-25T21:38:49.960Z,35.28
2022-11-25T21:43:51.788Z,25.95
2022-11-25T21:48:53.697Z,29.15
2022-11-25T21:53:55.553Z,24.77
2022-11-25T21:58:59.958Z,29.98
2022-11-25T22:04:01.680Z,30.15
2022-11-25T22:09:03.634Z,31.13
2022-11-25T22:14:10.520Z,38.67
2022-11-25T22:19:22.819Z,31.25
2022-11-25T22:24:24.542Z,24.60
2022-11-25T22:29:32.775Z,34.42
2022-11-25T22:34:34.602Z,35.60
2022-11-25T22:39:36.366Z,30.70
2022-11-25T22:44:42.936Z,32.47
2022-11-25T22:49:47.505Z,31.50
2022-11-25T22:54:49.782Z,30.83
2022-11-25T22:59:51.594Z,35.42
2022-11-25T23:04:55.622Z,35.35
2022-11-25T23:09:57.398Z,28.67
2022-11-25T23:14:59.110Z,25.52
2022-11-25T23:20:00.894Z,29.40
2022-11-25T23:25:02.771Z,26.88
2022-11-25T23:30:05.167Z,35.60
2022-11-25T23:35:09.714Z,34.42
2022-11-25T23:40:19.528Z,26.52
2022-11-25T23:45:23.609Z,22.33
2022-11-25T23:50:32.455Z,27.45
2022-11-25T23:55:36.737Z,29.02
